sensor_id;sensor_type;location;lat;lon;timestamp;temperature;humidity
25208;DHT22;13153;52.316;21.166;2024-03-23T00:54:35;10.20;99.90
25208;DHT22;13153;52.316;21.166;2024-03-23T00:57:01;10.10;99.90
25208;DHT22;13153;52.316;21.166;2024-03-23T00:59:28;10.10;99.90
25208;DHT22;13153;52.316;21.166;2024-03-23T01:01:56;10.10;99.90
25208;DHT22;13153;52.316;21.166;2024-03-23T01:04:23;10.00;99.90
25208;DHT22;13153;52.316;21.166;2024-03-23T01:06:49;10.00;99.90
25208;DHT22;13153;52.316;21.166;2024-03-23T01:09:16;10.00;99.90
25208;DHT22;13153;52.316;21.166;2024-03-23T01:11:42;10.00;99.90
25208;DHT22;13153;52.316;21.166;2024-03-23T01:14:08;10.00;99.90
25208;DHT22;13153;52.316;21.166;2024-03-23T01:16:35;10.00;99.90
25208;DHT22;13153;52.316;21.166;2024-03-23T01:19:02;10.00;99.90
25208;DHT22;13153;52.316;21.166;2024-03-23T01:21:29;10.00;99.90
25208;DHT22;13153;52.316;21.166;2024-03-23T01:23:55;10.00;99.90
25208;DHT22;13153;52.316;21.166;2024-03-23T01:26:21;10.00;99.90
25208;DHT22;13153;52.316;21.166;2024-03-23T01:28:48;10.00;99.90
25208;DHT22;13153;52.316;21.166;2024-03-23T01:31:14;10.00;99.90
25208;DHT22;13153;52.316;21.166;2024-03-23T01:33:41;10.00;99.90
25208;DHT22;13153;52.316;21.166;2024-03-23T01:36:07;10.00;99.90
25208;DHT22;13153;52.316;21.166;2024-03-23T01:38:33;10.00;99.90
25208;DHT22;13153;52.316;21.166;2024-03-23T01:41:00;10.00;99.90
25208;DHT22;13153;52.316;21.166;2024-03-23T01:43:26;10.00;99.90
25208;DHT22;13153;52.316;21.166;2024-03-23T01:45:52;10.00;99.90
25208;DHT22;13153;52.316;21.166;2024-03-23T01:48:20;10.00;99.90
25208;DHT22;13153;52.316;21.166;2024-03-23T01:50:46;10.00;99.90
25208;DHT22;13153;52.316;21.166;2024-03-23T01:53:14;10.00;99.90
25208;DHT22;13153;52.316;21.166;2024-03-23T01:55:43;10.00;99.90
25208;DHT22;13153;52.316;21.166;2024-03-23T01:58:10;10.00;99.90
25208;DHT22;13153;52.316;21.166;2024-03-23T02:00:37;10.00;99.90
25208;DHT22;13153;52.316;21.166;2024-03-23T02:03:25;10.00;99.90
25208;DHT22;13153;52.316;21.166;2024-03-23T02:05:53;10.00;99.90
25208;DHT22;13153;52.316;21.166;2024-03-23T02:08:22;9.90;99.90
25208;DHT22;13153;52.316;21.166;2024-03-23T02:10:50;9.90;99.90
25208;DHT22;13153;52.316;21.166;2024-03-23T02:13:17;10.00;99.90
25208;DHT22;13153;52.316;21.166;2024-03-23T02:15:44;10.00;99.90
25208;DHT22;13153;52.316;21.166;2024-03-23T02:18:11;10.00;99.90
25208;DHT22;13153;52.316;21.166;2024-03-23T02:20:37;10.00;99.90
25208;DHT22;13153;52.316;21.166;2024-03-23T02:23:04;9.90;99.90
25208;DHT22;13153;52.316;21.166;2024-03-23T02:25:33;10.00;99.90
25208;DHT22;13153;52.316;21.166;2024-03-23T02:28:00;10.00;99.90
25208;DHT22;13153;52.316;21.166;2024-03-23T02:30:26;10.00;99.90
25208;DHT22;13153;52.316;21.166;2024-03-23T02:32:53;10.00;99.90
25208;DHT22;13153;52.316;21.166;2024-03-23T02:35:19;10.00;99.90
25208;DHT22;13153;52.316;21.166;2024-03-23T02:37:46;10.00;99.90
25208;DHT22;13153;52.316;21.166;2024-03-23T02:40:15;10.00;99.90
25208;DHT22;13153;52.316;21.166;2024-03-23T02:42:41;10.00;99.90
25208;DHT22;13153;52.316;21.166;2024-03-23T02:45:07;10.00;99.90
25208;DHT22;13153;52.316;21.166;2024-03-23T02:47:34;10.00;99.90
25208;DHT22;13153;52.316;21.166;2024-03-23T02:50:00;10.00;99.90
25208;DHT22;13153;52.316;21.166;2024-03-23T02:52:26;9.90;99.90
25208;DHT22;13153;52.316;21.166;2024-03-23T02:54:53;10.00;99.90
25208;DHT22;13153;52.316;21.166;2024-03-23T02:57:19;10.00;99.90
25208;DHT22;13153;52.316;21.166;2024-03-23T02:59:47;10.00;99.90
25208;DHT22;13153;52.316;21.166;2024-03-23T03:02:15;10.00;99.90
25208;DHT22;13153;52.316;21.166;2024-03-23T03:04:42;9.90;99.90
25208;DHT22;13153;52.316;21.166;2024-03-23T03:07:08;10.00;99.90
25208;DHT22;13153;52.316;21.166;2024-03-23T03:09:34;9.90;99.90
25208;DHT22;13153;52.316;21.166;2024-03-23T03:12:04;9.90;99.90
25208;DHT22;13153;52.316;21.166;2024-03-23T03:14:31;9.90;99.90
25208;DHT22;13153;52.316;21.166;2024-03-23T03:16:57;9.90;99.90
25208;DHT22;13153;52.316;21.166;2024-03-23T03:19:24;9.90;99.90
25208;DHT22;13153;52.316;21.166;2024-03-23T03:21:50;9.90;99.90
25208;DHT22;13153;52.316;21.166;2024-03-23T03:24:16;9.90;99.90
25208;DHT22;13153;52.316;21.166;2024-03-23T03:26:43;9.90;99.90
25208;DHT22;13153;52.316;21.166;2024-03-23T03:29:09;9.90;99.90
25208;DHT22;13153;52.316;21.166;2024-03-23T03:31:35;9.90;99.90
25208;DHT22;13153;52.316;21.166;2024-03-23T03:34:02;9.90;99.90
25208;DHT22;13153;52.316;21.166;2024-03-23T03:36:28;10.00;99.90
25208;DHT22;13153;52.316;21.166;2024-03-23T03:38:54;10.00;99.90
25208;DHT22;13153;52.316;21.166;2024-03-23T03:41:20;10.00;99.90
25208;DHT22;13153;52.316;21.166;2024-03-23T03:43:47;10.00;99.90
25208;DHT22;13153;52.316;21.166;2024-03-23T03:46:13;10.00;99.90
25208;DHT22;13153;52.316;21.166;2024-03-23T03:48:39;10.10;99.90
25208;DHT22;13153;52.316;21.166;2024-03-23T03:51:05;10.10;99.90
25208;DHT22;13153;52.316;21.166;2024-03-23T03:53:31;10.00;99.90
25208;DHT22;13153;52.316;21.166;2024-03-23T03:56:01;10.10;99.90
25208;DHT22;13153;52.316;21.166;2024-03-23T03:58:28;10.10;99.90
25208;DHT22;13153;52.316;21.166;2024-03-23T04:00:54;10.10;99.90
25208;DHT22;13153;52.316;21.166;2024-03-23T04:03:21;10.10;99.90
25208;DHT22;13153;52.316;21.166;2024-03-23T04:05:54;10.10;99.90
25208;DHT22;13153;52.316;21.166;2024-03-23T04:08:21;10.10;99.90
25208;DHT22;13153;52.316;21.166;2024-03-23T04:10:48;10.20;99.90
25208;DHT22;13153;52.316;21.166;2024-03-23T04:13:14;10.10;99.90
25208;DHT22;13153;52.316;21.166;2024-03-23T04:15:41;10.20;99.90
25208;DHT22;13153;52.316;21.166;2024-03-23T04:18:07;10.10;99.90
25208;DHT22;13153;52.316;21.166;2024-03-23T04:20:33;10.10;99.90
25208;DHT22;13153;52.316;21.166;2024-03-23T04:23:00;10.10;99.90
25208;DHT22;13153;52.316;21.166;2024-03-23T04:25:26;10.10;99.90
25208;DHT22;13153;52.316;21.166;2024-03-23T04:27:53;10.10;99.90
25208;DHT22;13153;52.316;21.166;2024-03-23T04:30:21;10.20;99.90
25208;DHT22;13153;52.316;21.166;2024-03-23T04:32:50;10.10;99.90
25208;DHT22;13153;52.316;21.166;2024-03-23T04:35:17;10.10;99.90
25208;DHT22;13153;52.316;21.166;2024-03-23T04:37:45;10.20;99.90
25208;DHT22;13153;52.316;21.166;2024-03-23T04:40:12;10.20;99.90
25208;DHT22;13153;52.316;21.166;2024-03-23T04:42:38;10.20;99.90
25208;DHT22;13153;52.316;21.166;2024-03-23T04:45:05;10.20;99.90
25208;DHT22;13153;52.316;21.166;2024-03-23T04:47:32;10.20;99.90
25208;DHT22;13153;52.316;21.166;2024-03-23T04:49:58;10.10;99.90
25208;DHT22;13153;52.316;21.166;2024-03-23T04:52:25;10.20;99.90
25208;DHT22;13153;52.316;21.166;2024-03-23T04:54:51;10.20;99.90
25208;DHT22;13153;52.316;21.166;2024-03-23T04:57:18;10.20;99.90
25208;DHT22;13153;52.316;21.166;2024-03-23T04:59:44;10.20;99.90
25208;DHT22;13153;52.316;21.166;2024-03-23T05:02:10;10.20;99.90
25208;DHT22;13153;52.316;21.166;2024-03-23T05:04:36;10.20;99.90
25208;DHT22;13153;52.316;21.166;2024-03-23T05:07:04;10.20;99.90
25208;DHT22;13153;52.316;21.166;2024-03-23T05:09:30;10.20;99.90
25208;DHT22;13153;52.316;21.166;2024-03-23T05:11:58;10.20;99.90
25208;DHT22;13153;52.316;21.166;2024-03-23T05:14:28;10.30;99.90
25208;DHT22;13153;52.316;21.166;2024-03-23T05:16:54;10.20;99.90
25208;DHT22;13153;52.316;21.166;2024-03-23T05:19:21;10.30;99.90
25208;DHT22;13153;52.316;21.166;2024-03-23T05:21:49;10.30;99.90
25208;DHT22;13153;52.316;21.166;2024-03-23T05:24:15;10.40;99.90
25208;DHT22;13153;52.316;21.166;2024-03-23T05:26:42;10.40;99.90
25208;DHT22;13153;52.316;21.166;2024-03-23T05:29:08;10.40;99.90
25208;DHT22;13153;52.316;21.166;2024-03-23T05:31:39;10.40;99.90
25208;DHT22;13153;52.316;21.166;2024-03-23T05:34:07;10.40;99.90
25208;DHT22;13153;52.316;21.166;2024-03-23T05:36:34;10.40;99.90
25208;DHT22;13153;52.316;21.166;2024-03-23T05:39:01;10.40;99.90
25208;DHT22;13153;52.316;21.166;2024-03-23T05:41:28;10.40;99.90
25208;DHT22;13153;52.316;21.166;2024-03-23T05:43:55;10.40;99.90
25208;DHT22;13153;52.316;21.166;2024-03-23T05:46:21;10.40;99.90
25208;DHT22;13153;52.316;21.166;2024-03-23T05:48:47;10.40;99.90
25208;DHT22;13153;52.316;21.166;2024-03-23T05:51:14;10.50;99.90
25208;DHT22;13153;52.316;21.166;2024-03-23T05:53:40;10.50;99.90
25208;DHT22;13153;52.316;21.166;2024-03-23T05:56:06;10.40;99.90
25208;DHT22;13153;52.316;21.166;2024-03-23T05:58:33;10.40;99.90
25208;DHT22;13153;52.316;21.166;2024-03-23T06:01:00;10.40;99.90
25208;DHT22;13153;52.316;21.166;2024-03-23T06:03:28;10.40;99.90
25208;DHT22;13153;52.316;21.166;2024-03-23T06:05:55;10.50;99.90
25208;DHT22;13153;52.316;21.166;2024-03-23T06:08:22;10.50;99.90
25208;DHT22;13153;52.316;21.166;2024-03-23T06:10:49;10.50;99.90
25208;DHT22;13153;52.316;21.166;2024-03-23T06:13:16;10.50;99.90
25208;DHT22;13153;52.316;21.166;2024-03-23T06:15:43;10.60;99.90
25208;DHT22;13153;52.316;21.166;2024-03-23T06:18:11;10.40;99.90
25208;DHT22;13153;52.316;21.166;2024-03-23T06:20:38;10.50;99.90
25208;DHT22;13153;52.316;21.166;2024-03-23T06:23:06;10.50;99.90
25208;DHT22;13153;52.316;21.166;2024-03-23T06:25:32;10.50;99.90
25208;DHT22;13153;52.316;21.166;2024-03-23T06:27:59;10.50;99.90
25208;DHT22;13153;52.316;21.166;2024-03-23T06:30:27;10.50;99.90
25208;DHT22;13153;52.316;21.166;2024-03-23T06:32:53;10.50;99.90
25208;DHT22;13153;52.316;21.166;2024-03-23T06:35:20;10.50;99.90
25208;DHT22;13153;52.316;21.166;2024-03-23T06:37:47;10.50;99.90
25208;DHT22;13153;52.316;21.166;2024-03-23T06:40:13;10.50;99.90
25208;DHT22;13153;52.316;21.166;2024-03-23T06:42:41;10.40;99.90
25208;DHT22;13153;52.316;21.166;2024-03-23T06:45:07;10.50;99.90
25208;DHT22;13153;52.316;21.166;2024-03-23T06:47:34;10.50;99.90
25208;DHT22;13153;52.316;21.166;2024-03-23T06:50:03;10.50;99.90
25208;DHT22;13153;52.316;21.166;2024-03-23T06:52:32;10.50;99.90
25208;DHT22;13153;52.316;21.166;2024-03-23T06:54:58;10.50;99.90
25208;DHT22;13153;52.316;21.166;2024-03-23T06:57:26;10.50;99.90
25208;DHT22;13153;52.316;21.166;2024-03-23T06:59:53;10.50;99.90
25208;DHT22;13153;52.316;21.166;2024-03-23T07:02:19;10.50;99.90
25208;DHT22;13153;52.316;21.166;2024-03-23T07:04:46;10.50;99.90
25208;DHT22;13153;52.316;21.166;2024-03-23T07:07:12;10.40;99.90
25208;DHT22;13153;52.316;21.166;2024-03-23T07:09:39;10.50;99.90
25208;DHT22;13153;52.316;21.166;2024-03-23T07:12:05;10.50;99.90
25208;DHT22;13153;52.316;21.166;2024-03-23T07:14:33;10.60;99.90
25208;DHT22;13153;52.316;21.166;2024-03-23T07:17:01;10.60;99.90
25208;DHT22;13153;52.316;21.166;2024-03-23T07:19:28;10.60;99.90
25208;DHT22;13153;52.316;21.166;2024-03-23T07:21:55;10.60;99.90
25208;DHT22;13153;52.316;21.166;2024-03-23T07:24:21;10.70;99.90
25208;DHT22;13153;52.316;21.166;2024-03-23T07:26:48;10.70;99.90
25208;DHT22;13153;52.316;21.166;2024-03-23T07:29:14;10.60;99.90
25208;DHT22;13153;52.316;21.166;2024-03-23T07:31:40;10.50;99.90
25208;DHT22;13153;52.316;21.166;2024-03-23T07:34:07;10.60;99.90
25208;DHT22;13153;52.316;21.166;2024-03-23T07:36:33;10.60;99.90
25208;DHT22;13153;52.316;21.166;2024-03-23T07:39:00;10.60;99.90
25208;DHT22;13153;52.316;21.166;2024-03-23T07:41:26;10.50;99.90
25208;DHT22;13153;52.316;21.166;2024-03-23T07:43:53;10.60;99.90
25208;DHT22;13153;52.316;21.166;2024-03-23T07:46:20;10.40;99.90
25208;DHT22;13153;52.316;21.166;2024-03-23T07:48:46;10.50;99.90
25208;DHT22;13153;52.316;21.166;2024-03-23T07:51:18;10.50;99.90
25208;DHT22;13153;52.316;21.166;2024-03-23T07:53:48;10.50;99.90
25208;DHT22;13153;52.316;21.166;2024-03-23T07:56:15;10.50;99.90
25208;DHT22;13153;52.316;21.166;2024-03-23T07:58:43;10.50;99.90
25208;DHT22;13153;52.316;21.166;2024-03-23T08:01:13;10.50;99.90
25208;DHT22;13153;52.316;21.166;2024-03-23T08:03:43;10.40;99.90
25208;DHT22;13153;52.316;21.166;2024-03-23T08:06:12;10.40;99.90
25208;DHT22;13153;52.316;21.166;2024-03-23T08:08:46;10.40;99.90
25208;DHT22;13153;52.316;21.166;2024-03-23T08:11:13;10.40;99.90
25208;DHT22;13153;52.316;21.166;2024-03-23T08:13:40;10.40;99.90
25208;DHT22;13153;52.316;21.166;2024-03-23T08:16:07;10.50;99.90
25208;DHT22;13153;52.316;21.166;2024-03-23T08:18:37;10.50;99.90
25208;DHT22;13153;52.316;21.166;2024-03-23T08:21:04;10.50;99.90
25208;DHT22;13153;52.316;21.166;2024-03-23T08:23:32;10.50;99.90
25208;DHT22;13153;52.316;21.166;2024-03-23T08:26:01;10.50;99.90
25208;DHT22;13153;52.316;21.166;2024-03-23T08:28:32;10.50;99.90
25208;DHT22;13153;52.316;21.166;2024-03-23T08:31:01;10.60;99.90
25208;DHT22;13153;52.316;21.166;2024-03-23T08:33:31;10.60;99.90
25208;DHT22;13153;52.316;21.166;2024-03-23T08:36:04;10.70;99.90
25208;DHT22;13153;52.316;21.166;2024-03-23T08:38:31;10.70;99.90
25208;DHT22;13153;52.316;21.166;2024-03-23T08:41:08;10.70;99.90
25208;DHT22;13153;52.316;21.166;2024-03-23T08:43:39;10.70;99.90
25208;DHT22;13153;52.316;21.166;2024-03-23T08:46:13;10.70;99.90
25208;DHT22;13153;52.316;21.166;2024-03-23T08:48:42;10.60;99.90
25208;DHT22;13153;52.316;21.166;2024-03-23T08:51:10;10.60;99.90
25208;DHT22;13153;52.316;21.166;2024-03-23T08:53:38;10.60;99.90
25208;DHT22;13153;52.316;21.166;2024-03-23T08:56:05;10.70;99.90
25208;DHT22;13153;52.316;21.166;2024-03-23T08:58:32;10.80;99.90
25208;DHT22;13153;52.316;21.166;2024-03-23T09:01:10;10.90;99.90
25208;DHT22;13153;52.316;21.166;2024-03-23T09:03:41;11.10;99.90
25208;DHT22;13153;52.316;21.166;2024-03-23T09:06:11;11.50;99.90
25208;DHT22;13153;52.316;21.166;2024-03-23T09:08:38;11.80;99.90
25208;DHT22;13153;52.316;21.166;2024-03-23T09:11:07;12.10;99.90
25208;DHT22;13153;52.316;21.166;2024-03-23T09:13:34;12.30;99.90
25208;DHT22;13153;52.316;21.166;2024-03-23T09:16:01;12.50;99.90
25208;DHT22;13153;52.316;21.166;2024-03-23T09:18:31;12.80;99.90
25208;DHT22;13153;52.316;21.166;2024-03-23T09:20:59;12.80;99.90
25208;DHT22;13153;52.316;21.166;2024-03-23T09:23:25;12.80;99.90
25208;DHT22;13153;52.316;21.166;2024-03-23T09:25:51;12.80;99.90
25208;DHT22;13153;52.316;21.166;2024-03-23T09:28:17;12.70;99.90
25208;DHT22;13153;52.316;21.166;2024-03-23T09:30:43;12.60;99.90
25208;DHT22;13153;52.316;21.166;2024-03-23T09:33:13;12.70;99.90
25208;DHT22;13153;52.316;21.166;2024-03-23T09:35:40;12.60;99.90
25208;DHT22;13153;52.316;21.166;2024-03-23T09:38:10;12.60;99.90
25208;DHT22;13153;52.316;21.166;2024-03-23T09:40:42;12.60;99.90
25208;DHT22;13153;52.316;21.166;2024-03-23T09:43:09;12.50;99.90
25208;DHT22;13153;52.316;21.166;2024-03-23T09:45:38;12.60;99.90
25208;DHT22;13153;52.316;21.166;2024-03-23T09:48:08;12.60;99.90
25208;DHT22;13153;52.316;21.166;2024-03-23T09:50:39;12.70;99.90
25208;DHT22;13153;52.316;21.166;2024-03-23T09:53:13;12.60;99.90
25208;DHT22;13153;52.316;21.166;2024-03-23T09:55:41;12.60;99.90
25208;DHT22;13153;52.316;21.166;2024-03-23T09:58:08;12.50;99.90
25208;DHT22;13153;52.316;21.166;2024-03-23T10:00:37;12.60;99.90
25208;DHT22;13153;52.316;21.166;2024-03-23T10:03:04;12.60;99.90
25208;DHT22;13153;52.316;21.166;2024-03-23T10:05:32;12.70;99.90
25208;DHT22;13153;52.316;21.166;2024-03-23T10:08:21;12.80;99.90
25208;DHT22;13153;52.316;21.166;2024-03-23T10:10:47;12.80;99.90
25208;DHT22;13153;52.316;21.166;2024-03-23T10:13:26;13.10;99.90
25208;DHT22;13153;52.316;21.166;2024-03-23T10:15:58;13.30;99.90
25208;DHT22;13153;52.316;21.166;2024-03-23T10:18:25;13.70;99.90
25208;DHT22;13153;52.316;21.166;2024-03-23T10:21:11;13.70;99.90
25208;DHT22;13153;52.316;21.166;2024-03-23T10:23:40;13.80;99.90
25208;DHT22;13153;52.316;21.166;2024-03-23T10:26:14;14.00;99.90
25208;DHT22;13153;52.316;21.166;2024-03-23T10:31:33;14.00;77.20
25208;DHT22;13153;52.316;21.166;2024-03-23T10:34:03;14.10;58.30
25208;DHT22;13153;52.316;21.166;2024-03-23T10:36:30;14.10;28.40
25208;DHT22;13153;52.316;21.166;2024-03-23T10:38:56;14.10;1.00
25208;DHT22;13153;52.316;21.166;2024-03-23T10:41:29;14.10;1.00
25208;DHT22;13153;52.316;21.166;2024-03-23T10:43:58;14.20;1.00
25208;DHT22;13153;52.316;21.166;2024-03-23T10:46:25;14.30;1.00
25208;DHT22;13153;52.316;21.166;2024-03-23T10:48:52;14.40;1.00
25208;DHT22;13153;52.316;21.166;2024-03-23T10:51:18;14.50;1.00
25208;DHT22;13153;52.316;21.166;2024-03-23T10:53:45;14.50;99.90
25208;DHT22;13153;52.316;21.166;2024-03-23T10:56:13;14.60;1.00
25208;DHT22;13153;52.316;21.166;2024-03-23T10:58:47;14.50;1.00
25208;DHT22;13153;52.316;21.166;2024-03-23T11:01:15;14.40;1.00
25208;DHT22;13153;52.316;21.166;2024-03-23T11:03:47;14.40;99.90
25208;DHT22;13153;52.316;21.166;2024-03-23T11:06:35;14.20;99.90
25208;DHT22;13153;52.316;21.166;2024-03-23T11:09:02;14.10;1.00
25208;DHT22;13153;52.316;21.166;2024-03-23T11:11:29;14.00;1.00
25208;DHT22;13153;52.316;21.166;2024-03-23T11:13:58;14.00;1.00
25208;DHT22;13153;52.316;21.166;2024-03-23T11:16:29;14.00;99.90
25208;DHT22;13153;52.316;21.166;2024-03-23T11:19:34;14.10;99.90
25208;DHT22;13153;52.316;21.166;2024-03-23T11:22:04;14.30;1.00
25208;DHT22;13153;52.316;21.166;2024-03-23T11:24:33;14.40;1.00
25208;DHT22;13153;52.316;21.166;2024-03-23T11:27:00;14.50;1.00
25208;DHT22;13153;52.316;21.166;2024-03-23T11:29:29;14.50;99.90
25208;DHT22;13153;52.316;21.166;2024-03-23T11:31:56;14.60;1.00
25208;DHT22;13153;52.316;21.166;2024-03-23T11:34:22;14.70;1.00
25208;DHT22;13153;52.316;21.166;2024-03-23T11:36:48;14.70;1.00
25208;DHT22;13153;52.316;21.166;2024-03-23T11:39:17;14.60;1.00
25208;DHT22;13153;52.316;21.166;2024-03-23T11:41:48;14.60;1.00
25208;DHT22;13153;52.316;21.166;2024-03-23T11:58:22;14.80;99.90
25208;DHT22;13153;52.316;21.166;2024-03-23T12:01:10;14.70;1.00
25208;DHT22;13153;52.316;21.166;2024-03-23T12:03:36;14.70;1.00
25208;DHT22;13153;52.316;21.166;2024-03-23T12:06:03;14.80;99.90
25208;DHT22;13153;52.316;21.166;2024-03-23T12:08:36;14.80;1.00
25208;DHT22;13153;52.316;21.166;2024-03-23T12:11:16;14.90;99.90
25208;DHT22;13153;52.316;21.166;2024-03-23T12:13:44;14.90;1.00
25208;DHT22;13153;52.316;21.166;2024-03-23T12:16:17;14.90;1.00
25208;DHT22;13153;52.316;21.166;2024-03-23T12:18:47;14.90;1.00
25208;DHT22;13153;52.316;21.166;2024-03-23T12:21:14;14.90;99.90
25208;DHT22;13153;52.316;21.166;2024-03-23T12:23:42;14.80;1.00
25208;DHT22;13153;52.316;21.166;2024-03-23T12:26:10;14.90;1.00
25208;DHT22;13153;52.316;21.166;2024-03-23T12:28:37;15.00;99.90
25208;DHT22;13153;52.316;21.166;2024-03-23T12:31:04;14.90;1.00
25208;DHT22;13153;52.316;21.166;2024-03-23T12:33:30;14.90;1.00
25208;DHT22;13153;52.316;21.166;2024-03-23T12:35:55;14.90;99.90
25208;DHT22;13153;52.316;21.166;2024-03-23T12:38:21;14.90;99.90
25208;DHT22;13153;52.316;21.166;2024-03-23T12:40:48;15.00;1.00
25208;DHT22;13153;52.316;21.166;2024-03-23T12:43:14;15.00;99.90
25208;DHT22;13153;52.316;21.166;2024-03-23T12:45:40;15.10;1.00
25208;DHT22;13153;52.316;21.166;2024-03-23T12:48:07;15.10;1.00
25208;DHT22;13153;52.316;21.166;2024-03-23T12:50:33;15.20;1.00
25208;DHT22;13153;52.316;21.166;2024-03-23T12:52:58;15.20;1.00
25208;DHT22;13153;52.316;21.166;2024-03-23T12:55:24;15.20;1.00
25208;DHT22;13153;52.316;21.166;2024-03-23T12:57:50;15.10;1.00
25208;DHT22;13153;52.316;21.166;2024-03-23T13:00:16;15.10;1.00
25208;DHT22;13153;52.316;21.166;2024-03-23T13:02:42;15.00;1.00
25208;DHT22;13153;52.316;21.166;2024-03-23T13:05:08;15.00;1.00
25208;DHT22;13153;52.316;21.166;2024-03-23T13:07:35;15.00;99.90
25208;DHT22;13153;52.316;21.166;2024-03-23T13:10:01;14.90;99.90
25208;DHT22;13153;52.316;21.166;2024-03-23T13:12:27;14.90;99.90
25208;DHT22;13153;52.316;21.166;2024-03-23T13:14:53;14.90;1.00
25208;DHT22;13153;52.316;21.166;2024-03-23T13:17:19;14.80;1.00
25208;DHT22;13153;52.316;21.166;2024-03-23T13:19:44;14.70;99.90
25208;DHT22;13153;52.316;21.166;2024-03-23T13:22:10;14.70;99.90
25208;DHT22;13153;52.316;21.166;2024-03-23T13:24:37;14.70;1.00
25208;DHT22;13153;52.316;21.166;2024-03-23T13:27:03;14.70;1.00
25208;DHT22;13153;52.316;21.166;2024-03-23T13:29:33;14.70;1.00
25208;DHT22;13153;52.316;21.166;2024-03-23T13:32:03;14.70;1.00
25208;DHT22;13153;52.316;21.166;2024-03-23T13:34:29;14.80;1.00
25208;DHT22;13153;52.316;21.166;2024-03-23T13:36:55;14.80;1.00
25208;DHT22;13153;52.316;21.166;2024-03-23T13:39:24;14.80;1.00
25208;DHT22;13153;52.316;21.166;2024-03-23T13:41:52;14.80;1.00
25208;DHT22;13153;52.316;21.166;2024-03-23T13:44:19;14.70;1.00
25208;DHT22;13153;52.316;21.166;2024-03-23T13:46:44;14.70;1.00
25208;DHT22;13153;52.316;21.166;2024-03-23T13:49:30;14.70;1.00
25208;DHT22;13153;52.316;21.166;2024-03-23T13:51:59;14.70;1.00
25208;DHT22;13153;52.316;21.166;2024-03-23T13:54:26;14.70;1.00
25208;DHT22;13153;52.316;21.166;2024-03-23T13:56:53;14.70;1.00
25208;DHT22;13153;52.316;21.166;2024-03-23T13:59:20;14.70;1.00
25208;DHT22;13153;52.316;21.166;2024-03-23T14:01:48;14.70;1.00
25208;DHT22;13153;52.316;21.166;2024-03-23T14:04:15;14.70;1.00
25208;DHT22;13153;52.316;21.166;2024-03-23T14:06:44;14.70;1.00
25208;DHT22;13153;52.316;21.166;2024-03-23T14:09:12;14.70;1.00
25208;DHT22;13153;52.316;21.166;2024-03-23T14:11:45;14.70;1.00
25208;DHT22;13153;52.316;21.166;2024-03-23T14:14:11;14.60;1.00
25208;DHT22;13153;52.316;21.166;2024-03-23T14:16:37;14.60;1.00
25208;DHT22;13153;52.316;21.166;2024-03-23T14:19:03;14.60;1.00
25208;DHT22;13153;52.316;21.166;2024-03-23T14:21:31;14.50;84.70
25208;DHT22;13153;52.316;21.166;2024-03-23T14:23:56;14.50;99.90
25208;DHT22;13153;52.316;21.166;2024-03-23T14:26:22;14.50;1.00
25208;DHT22;13153;52.316;21.166;2024-03-23T14:28:49;14.40;1.00
25208;DHT22;13153;52.316;21.166;2024-03-23T14:31:16;14.40;1.00
25208;DHT22;13153;52.316;21.166;2024-03-23T14:33:42;14.30;1.00
25208;DHT22;13153;52.316;21.166;2024-03-23T14:36:12;14.30;1.00
25208;DHT22;13153;52.316;21.166;2024-03-23T14:38:48;14.30;99.90
25208;DHT22;13153;52.316;21.166;2024-03-23T14:41:14;14.20;1.00
25208;DHT22;13153;52.316;21.166;2024-03-23T14:43:40;14.20;1.00
25208;DHT22;13153;52.316;21.166;2024-03-23T14:46:15;14.20;1.00
25208;DHT22;13153;52.316;21.166;2024-03-23T14:48:43;14.20;1.00
25208;DHT22;13153;52.316;21.166;2024-03-23T14:51:10;14.10;1.00
25208;DHT22;13153;52.316;21.166;2024-03-23T14:53:41;14.10;99.90
25208;DHT22;13153;52.316;21.166;2024-03-23T14:56:11;14.10;99.90
25208;DHT22;13153;52.316;21.166;2024-03-23T14:58:38;14.00;99.90
25208;DHT22;13153;52.316;21.166;2024-03-23T15:01:06;14.00;99.90
25208;DHT22;13153;52.316;21.166;2024-03-23T15:03:36;14.00;99.90
25208;DHT22;13153;52.316;21.166;2024-03-23T15:06:04;13.90;99.90
25208;DHT22;13153;52.316;21.166;2024-03-23T15:08:30;14.00;99.90
25208;DHT22;13153;52.316;21.166;2024-03-23T15:10:59;14.00;1.00
25208;DHT22;13153;52.316;21.166;2024-03-23T15:13:26;14.00;99.90
25208;DHT22;13153;52.316;21.166;2024-03-23T15:15:51;13.90;1.00
25208;DHT22;13153;52.316;21.166;2024-03-23T15:18:17;13.90;1.00
25208;DHT22;13153;52.316;21.166;2024-03-23T15:20:58;13.90;1.00
25208;DHT22;13153;52.316;21.166;2024-03-23T15:23:28;13.90;1.00
25208;DHT22;13153;52.316;21.166;2024-03-23T15:25:59;13.90;39.80
25208;DHT22;13153;52.316;21.166;2024-03-23T15:28:29;13.80;45.00
25208;DHT22;13153;52.316;21.166;2024-03-23T15:31:27;13.60;99.90
25208;DHT22;13153;52.316;21.166;2024-03-23T15:33:54;13.40;99.90
25208;DHT22;13153;52.316;21.166;2024-03-23T15:36:20;13.20;99.90
25208;DHT22;13153;52.316;21.166;2024-03-23T15:38:46;13.10;99.90
25208;DHT22;13153;52.316;21.166;2024-03-23T15:41:12;13.00;99.90
25208;DHT22;13153;52.316;21.166;2024-03-23T15:43:37;13.00;99.90
25208;DHT22;13153;52.316;21.166;2024-03-23T15:46:04;13.00;99.90
25208;DHT22;13153;52.316;21.166;2024-03-23T15:48:35;12.90;99.90
25208;DHT22;13153;52.316;21.166;2024-03-23T15:51:04;12.80;99.90
25208;DHT22;13153;52.316;21.166;2024-03-23T15:53:30;12.80;99.90
25208;DHT22;13153;52.316;21.166;2024-03-23T15:58:33;12.80;99.90
25208;DHT22;13153;52.316;21.166;2024-03-23T16:03:28;12.70;99.90
25208;DHT22;13153;52.316;21.166;2024-03-23T16:05:59;12.60;99.90
25208;DHT22;13153;52.316;21.166;2024-03-23T16:08:26;12.50;99.90
25208;DHT22;13153;52.316;21.166;2024-03-23T16:10:53;12.50;99.90
25208;DHT22;13153;52.316;21.166;2024-03-23T16:13:20;12.40;99.90
25208;DHT22;13153;52.316;21.166;2024-03-23T16:15:56;12.30;99.90
25208;DHT22;13153;52.316;21.166;2024-03-23T16:18:28;12.30;99.90
25208;DHT22;13153;52.316;21.166;2024-03-23T16:20:56;12.20;99.90
25208;DHT22;13153;52.316;21.166;2024-03-23T16:23:23;12.10;99.90
25208;DHT22;13153;52.316;21.166;2024-03-23T16:25:53;12.10;99.90
25208;DHT22;13153;52.316;21.166;2024-03-23T16:28:33;12.00;99.90
25208;DHT22;13153;52.316;21.166;2024-03-23T16:31:02;12.10;99.90
25208;DHT22;13153;52.316;21.166;2024-03-23T16:33:30;12.10;99.90
25208;DHT22;13153;52.316;21.166;2024-03-23T16:36:00;12.20;99.90
25208;DHT22;13153;52.316;21.166;2024-03-23T16:38:29;12.30;99.90
25208;DHT22;13153;52.316;21.166;2024-03-23T16:40:59;12.30;99.90